createdAt,value
2018-11-26T00:00:36.134Z,101478.27
2018-11-26T00:03:07.021Z,101481.67
2018-11-26T00:05:34.754Z,101475.95
2018-11-26T00:08:02.573Z,101476.25
2018-11-26T00:10:42.182Z,101476.27
2018-11-26T00:13:09.902Z,101468.64
2018-11-26T00:15:37.741Z,101464.84
2018-11-26T00:18:05.808Z,101463.23
2018-11-26T00:20:33.531Z,101454.41
2018-11-26T00:23:01.336Z,101448.70
2018-11-26T00:25:29.075Z,101450.60
2018-11-26T00:27:56.827Z,101456.70
2018-11-26T00:30:24.545Z,101458.70
2018-11-26T00:32:52.238Z,101451.79
2018-11-26T00:35:20.025Z,101456.02
2018-11-26T00:37:47.761Z,101457.30
2018-11-26T00:40:15.460Z,101460.31
2018-11-26T00:42:43.189Z,101452.28
2018-11-26T00:45:11.902Z,101446.09
2018-11-26T00:47:39.600Z,101442.97
2018-11-26T00:50:08.678Z,101442.77
2018-11-26T00:52:36.402Z,101436.16
2018-11-26T00:55:04.631Z,101432.93
2018-11-26T00:57:32.346Z,101438.77
2018-11-26T01:00:00.097Z,101438.05
2018-11-26T01:02:27.846Z,101436.25
2018-11-26T01:04:55.590Z,101441.06
2018-11-26T01:07:23.372Z,101438.55
2018-11-26T01:09:51.137Z,101440.55
2018-11-26T01:12:18.903Z,101440.05
2018-11-26T01:14:46.628Z,101436.74
2018-11-26T01:17:14.318Z,101438.95
2018-11-26T01:19:42.048Z,101433.05
2018-11-26T01:22:09.733Z,101436.63
2018-11-26T01:24:37.554Z,101431.84
2018-11-26T01:27:05.507Z,101434.64
2018-11-26T01:29:33.234Z,101431.22
2018-11-26T01:32:00.969Z,101431.91
2018-11-26T01:34:28.704Z,101431.42
2018-11-26T01:36:56.431Z,101433.05
2018-11-26T01:39:24.141Z,101438.14
2018-11-26T01:41:51.937Z,101429.81
2018-11-26T01:44:19.705Z,101438.12
2018-11-26T01:46:47.413Z,101430.51
2018-11-26T01:49:15.165Z,101429.64
2018-11-26T01:51:42.894Z,101435.52
2018-11-26T01:54:10.604Z,101426.80
2018-11-26T01:56:38.321Z,101435.52
2018-11-26T01:59:06.125Z,101432.53
2018-11-26T02:01:33.877Z,101431.02
2018-11-26T02:04:01.680Z,101431.42
2018-11-26T02:06:29.463Z,101430.02
2018-11-26T02:08:57.175Z,101433.63
2018-11-26T02:11:24.871Z,101420.81
2018-11-26T02:13:52.603Z,101423.30
2018-11-26T02:16:20.365Z,101428.20
2018-11-26T02:18:48.132Z,101428.39
2018-11-26T02:21:15.854Z,101420.02
2018-11-26T02:23:43.577Z,101418.69
2018-11-26T02:26:11.367Z,101421.18
2018-11-26T02:28:39.116Z,101425.70
2018-11-26T02:31:06.859Z,101423.01
2018-11-26T02:33:34.581Z,101422.09
2018-11-26T02:36:02.398Z,101426.02
2018-11-26T02:38:30.136Z,101426.30
2018-11-26T02:40:57.918Z,101424.80
2018-11-26T02:43:25.651Z,101433.11
2018-11-26T02:45:53.378Z,101420.71
2018-11-26T02:48:21.133Z,101424.53
2018-11-26T02:50:48.820Z,101431.78
2018-11-26T02:53:16.797Z,101425.91
2018-11-26T02:55:44.548Z,101424.63
2018-11-26T02:58:12.286Z,101431.64
2018-11-26T03:00:40.157Z,101427.41
2018-11-26T03:03:07.917Z,101429.13
2018-11-26T03:05:35.687Z,101428.42
2018-11-26T03:08:03.449Z,101431.91
2018-11-26T03:10:31.204Z,101432.63
2018-11-26T03:12:58.934Z,101429.00
2018-11-26T03:15:26.703Z,101427.39
2018-11-26T03:17:54.468Z,101424.31
2018-11-26T03:20:22.153Z,101430.70
2018-11-26T03:22:49.901Z,101430.51
2018-11-26T03:25:17.662Z,101428.10
2018-11-26T03:27:45.418Z,101424.41
2018-11-26T03:30:17.312Z,101423.20
2018-11-26T03:32:45.045Z,101429.82
2018-11-26T03:35:12.829Z,101434.42
2018-11-26T03:37:40.562Z,101429.50
2018-11-26T03:40:10.778Z,101432.61
2018-11-26T03:42:38.565Z,101431.70
2018-11-26T03:45:10.435Z,101426.31
2018-11-26T03:47:38.181Z,101429.30
2018-11-26T03:50:06.358Z,101428.92
2018-11-26T03:52:34.202Z,101428.70
2018-11-26T03:55:01.922Z,101434.83
2018-11-26T03:57:29.711Z,101421.30
2018-11-26T03:59:57.443Z,101432.44
2018-11-26T04:02:25.175Z,101417.78
2018-11-26T04:04:52.886Z,101419.68
2018-11-26T04:07:20.567Z,101426.80
2018-11-26T04:09:48.297Z,101428.20
2018-11-26T04:12:16.043Z,101428.01
2018-11-26T04:14:43.785Z,101430.22
2018-11-26T04:17:11.522Z,101424.81
2018-11-26T04:19:39.235Z,101424.48
2018-11-26T04:22:06.920Z,101421.01
2018-11-26T04:24:35.480Z,101429.78
2018-11-26T04:27:03.170Z,101436.13
2018-11-26T04:29:30.902Z,101444.41
2018-11-26T04:31:58.638Z,101428.48
2018-11-26T04:34:26.362Z,101424.67
2018-11-26T04:36:54.069Z,101429.10
2018-11-26T04:39:21.745Z,101430.39
2018-11-26T04:41:49.512Z,101439.25
2018-11-26T04:44:17.225Z,101434.62
2018-11-26T04:46:44.941Z,101440.94
2018-11-26T04:49:12.679Z,101441.03
2018-11-26T04:51:40.417Z,101436.23
2018-11-26T04:54:08.165Z,101443.66
2018-11-26T04:56:35.881Z,101438.13
2018-11-26T04:59:03.617Z,101429.70
2018-11-26T05:01:31.343Z,101440.02
2018-11-26T05:03:59.111Z,101435.84
2018-11-26T05:06:26.795Z,101441.30
2018-11-26T05:08:54.600Z,101438.44
2018-11-26T05:11:22.319Z,101439.94
2018-11-26T05:13:50.079Z,101442.03
2018-11-26T05:16:17.837Z,101446.11
2018-11-26T05:18:45.557Z,101434.22
2018-11-26T05:21:13.339Z,101440.30
2018-11-26T05:23:41.119Z,101446.33
2018-11-26T05:26:08.888Z,101443.34
2018-11-26T05:28:36.681Z,101442.11
2018-11-26T05:31:04.707Z,101435.70
2018-11-26T05:33:32.420Z,101436.59
2018-11-26T05:36:00.173Z,101436.91
2018-11-26T05:38:27.893Z,101432.77
2018-11-26T05:40:55.639Z,101439.09
2018-11-26T05:43:23.378Z,101431.70
2018-11-26T05:45:51.088Z,101442.30
2018-11-26T05:48:18.833Z,101446.64
2018-11-26T05:50:46.523Z,101440.55
2018-11-26T05:53:14.294Z,101435.61
2018-11-26T05:55:42.080Z,101443.28
2018-11-26T05:58:09.835Z,101444.81
2018-11-26T06:00:37.677Z,101449.53
2018-11-26T06:03:06.014Z,101445.19
2018-11-26T06:05:33.774Z,101458.33
2018-11-26T06:08:01.489Z,101454.22
2018-11-26T06:10:29.234Z,101460.36
2018-11-26T06:12:56.979Z,101461.05
2018-11-26T06:15:24.664Z,101457.55
2018-11-26T06:17:52.449Z,101459.45
2018-11-26T06:20:20.261Z,101470.45
2018-11-26T06:22:48.061Z,101470.41
2018-11-26T06:25:17.179Z,101476.68
2018-11-26T06:27:45.490Z,101465.45
2018-11-26T06:30:14.354Z,101471.70
2018-11-26T06:32:42.262Z,101472.86
2018-11-26T06:35:12.435Z,101485.59
2018-11-26T06:37:40.150Z,101479.20
2018-11-26T06:40:08.986Z,101475.55
2018-11-26T06:42:36.703Z,101486.81
2018-11-26T06:45:06.540Z,101476.89
2018-11-26T06:47:34.266Z,101483.40
2018-11-26T06:50:01.982Z,101489.94
2018-11-26T06:52:32.378Z,101490.23
2018-11-26T06:55:00.183Z,101500.56
2018-11-26T06:57:27.942Z,101508.03
2018-11-26T06:59:55.658Z,101496.95
2018-11-26T07:02:23.385Z,101499.14
2018-11-26T07:04:51.192Z,101512.70
2018-11-26T07:07:19.312Z,101509.16
2018-11-26T07:09:47.116Z,101521.12
2018-11-26T07:12:14.813Z,101515.91
2018-11-26T07:14:42.561Z,101523.08
2018-11-26T07:17:10.275Z,101522.88
2018-11-26T07:19:37.991Z,101513.50
2018-11-26T07:22:05.723Z,101520.70
2018-11-26T07:24:34.425Z,101523.23
2018-11-26T07:27:03.088Z,101532.44
2018-11-26T07:29:30.814Z,101535.94
2018-11-26T07:31:58.555Z,101535.82
2018-11-26T07:34:26.286Z,101538.42
2018-11-26T07:36:54.051Z,101541.18
2018-11-26T07:39:21.839Z,101538.95
2018-11-26T07:41:49.616Z,101543.59
2018-11-26T07:44:17.355Z,101555.31
2018-11-26T07:46:45.119Z,101554.02
2018-11-26T07:49:12.913Z,101554.94
2018-11-26T07:51:40.681Z,101556.13
2018-11-26T07:54:08.403Z,101555.26
2018-11-26T07:56:36.252Z,101561.63
2018-11-26T07:59:04.170Z,101568.78
2018-11-26T08:01:32.833Z,101575.79
2018-11-26T08:04:00.675Z,101579.17
2018-11-26T08:06:28.437Z,101575.58
2018-11-26T08:08:56.185Z,101585.23
2018-11-26T08:11:24.074Z,101585.02
2018-11-26T08:13:51.829Z,101595.28
2018-11-26T08:16:19.576Z,101582.09
2018-11-26T08:18:47.361Z,101591.22
2018-11-26T08:21:15.267Z,101589.88
2018-11-26T08:23:43.102Z,101587.11
2018-11-26T08:26:10.869Z,101585.11
2018-11-26T08:28:38.653Z,101587.60
2018-11-26T08:31:06.717Z,101588.78
2018-11-26T08:33:34.508Z,101600.11
2018-11-26T08:36:08.694Z,101600.26
2018-11-26T08:38:42.293Z,101603.84
2018-11-26T08:41:14.029Z,101602.78
2018-11-26T08:43:44.638Z,101616.10
2018-11-26T08:46:18.291Z,101616.22
2018-11-26T08:48:52.582Z,101620.30
2018-11-26T08:51:20.580Z,101615.90
2018-11-26T08:53:48.420Z,101630.81
2018-11-26T08:56:16.279Z,101630.32
2018-11-26T08:58:44.044Z,101634.99
2018-11-26T09:01:17.198Z,101634.75
2018-11-26T09:03:48.027Z,101630.56
2018-11-26T09:06:16.229Z,101625.78
2018-11-26T09:08:44.001Z,101639.64
2018-11-26T09:11:11.729Z,101626.00
2018-11-26T09:13:39.519Z,101629.55
2018-11-26T09:16:07.534Z,101632.23
2018-11-26T09:18:35.282Z,101627.26
2018-11-26T09:21:03.072Z,101629.63
2018-11-26T09:23:30.852Z,101629.18
2018-11-26T09:25:58.562Z,101633.86
2018-11-26T09:28:26.346Z,101630.93
2018-11-26T09:30:54.087Z,101637.56
2018-11-26T09:33:21.844Z,101648.08
2018-11-26T09:35:49.637Z,101639.20
2018-11-26T09:38:17.451Z,101650.23
2018-11-26T09:40:45.209Z,101648.72
2018-11-26T09:43:12.974Z,101654.02
2018-11-26T09:45:40.904Z,101645.58
2018-11-26T09:48:08.735Z,101643.70
2018-11-26T09:50:37.351Z,101648.88
2018-11-26T09:53:05.437Z,101643.95
2018-11-26T09:55:33.186Z,101658.61
2018-11-26T09:58:01.771Z,101649.48
2018-11-26T10:00:29.708Z,101648.64
2018-11-26T10:02:57.495Z,101638.86
2018-11-26T10:05:25.717Z,101634.14
2018-11-26T10:07:53.526Z,101637.84
2018-11-26T10:10:21.812Z,101637.20
2018-11-26T10:12:49.607Z,101637.68
2018-11-26T10:15:19.393Z,101635.77
2018-11-26T10:17:47.594Z,101637.08
2018-11-26T10:20:15.451Z,101628.08
2018-11-26T10:22:43.751Z,101638.91
2018-11-26T10:25:15.684Z,101639.79
2018-11-26T10:27:43.523Z,101644.20
2018-11-26T10:30:14.176Z,101645.91
2018-11-26T10:32:42.298Z,101640.41
2018-11-26T10:35:12.084Z,101642.98
2018-11-26T10:37:39.947Z,101646.81
2018-11-26T10:40:13.762Z,101647.70
2018-11-26T10:42:41.524Z,101644.48
2018-11-26T10:45:11.424Z,101643.92
2018-11-26T10:47:39.141Z,101633.19
2018-11-26T10:50:10.445Z,101630.39
2018-11-26T10:52:38.313Z,101634.42
2018-11-26T10:55:09.469Z,101626.55
2018-11-26T10:57:37.146Z,101639.02
2018-11-26T11:00:06.980Z,101626.95
2018-11-26T11:02:40.182Z,101634.75
2018-11-26T11:05:08.068Z,101637.84
2018-11-26T11:07:35.808Z,101631.88
2018-11-26T11:10:04.637Z,101636.00
2018-11-26T11:12:33.105Z,101631.86
2018-11-26T11:15:00.833Z,101643.34
2018-11-26T11:17:28.607Z,101639.52
2018-11-26T11:19:56.357Z,101648.93
2018-11-26T11:22:24.064Z,101647.33
2018-11-26T11:24:51.846Z,101637.56
2018-11-26T11:27:19.632Z,101640.49
2018-11-26T11:29:47.390Z,101646.39
2018-11-26T11:32:15.106Z,101648.92
2018-11-26T11:34:42.845Z,101651.32
2018-11-26T11:37:10.588Z,101650.59
2018-11-26T11:39:38.391Z,101654.09
2018-11-26T11:42:06.179Z,101653.45
2018-11-26T11:44:33.990Z,101652.77
2018-11-26T11:47:01.797Z,101651.77
2018-11-26T11:49:29.545Z,101640.81
2018-11-26T11:51:57.307Z,101637.56
2018-11-26T11:54:25.047Z,101642.45
2018-11-26T11:56:52.954Z,101639.80
2018-11-26T11:59:20.746Z,101643.30
2018-11-26T12:01:48.688Z,101638.99
2018-11-26T12:04:16.495Z,101636.51
2018-11-26T12:06:44.318Z,101635.33
2018-11-26T12:09:12.206Z,101640.34
2018-11-26T12:11:41.013Z,101649.55
2018-11-26T12:14:08.859Z,101637.48
2018-11-26T12:16:36.716Z,101655.77
2018-11-26T12:19:04.518Z,101649.53
2018-11-26T12:21:32.280Z,101644.86
2018-11-26T12:24:00.029Z,101645.06
2018-11-26T12:26:27.779Z,101643.67
2018-11-26T12:28:55.536Z,101644.16
2018-11-26T12:31:23.335Z,101640.50
2018-11-26T12:33:51.087Z,101638.26
2018-11-26T12:36:18.822Z,101646.13
2018-11-26T12:38:46.627Z,101644.05
2018-11-26T12:41:14.424Z,101646.73
2018-11-26T12:43:42.171Z,101642.08
2018-11-26T12:46:09.942Z,101641.88
2018-11-26T12:48:37.694Z,101640.54
2018-11-26T12:51:05.650Z,101636.84
2018-11-26T12:53:33.388Z,101643.70
2018-11-26T12:56:01.162Z,101630.16
2018-11-26T12:58:28.880Z,101634.67
2018-11-26T13:00:56.642Z,101644.05
2018-11-26T13:03:24.369Z,101629.42
2018-11-26T13:05:52.104Z,101633.91
2018-11-26T13:08:19.817Z,101636.43
2018-11-26T13:10:47.554Z,101639.48
2018-11-26T13:13:15.284Z,101643.39
2018-11-26T13:15:43.165Z,101638.21
2018-11-26T13:18:10.999Z,101633.98
2018-11-26T13:20:38.794Z,101634.38
2018-11-26T13:23:08.039Z,101634.47
2018-11-26T13:25:41.556Z,101638.75
2018-11-26T13:28:05.532Z,101652.96
2018-11-26T13:30:37.592Z,101642.25
2018-11-26T13:33:07.894Z,101639.16
2018-11-26T13:35:35.749Z,101642.49
2018-11-26T13:38:03.537Z,101639.31
2018-11-26T13:40:31.308Z,101640.58
2018-11-26T13:42:59.117Z,101647.70
2018-11-26T13:45:28.939Z,101644.49
2018-11-26T13:47:56.735Z,101643.19
2018-11-26T13:50:27.499Z,101643.88
2018-11-26T13:52:55.595Z,101637.69
2018-11-26T13:55:23.597Z,101640.91
2018-11-26T13:57:51.382Z,101644.48
2018-11-26T14:00:19.370Z,101647.87
2018-11-26T14:02:47.283Z,101647.46
2018-11-26T14:05:17.088Z,101643.76
2018-11-26T14:07:45.193Z,101643.42
2018-11-26T14:10:16.241Z,101651.09
2018-11-26T14:12:44.676Z,101649.28
2018-11-26T14:15:15.075Z,101654.55
2018-11-26T14:17:42.864Z,101660.01
2018-11-26T14:20:14.232Z,101659.31
2018-11-26T14:22:42.164Z,101674.95
2018-11-26T14:25:18.107Z,101662.20
2018-11-26T14:27:46.426Z,101665.38
2018-11-26T14:30:16.674Z,101668.52
2018-11-26T14:32:44.377Z,101667.58
2018-11-26T14:35:12.233Z,101668.14
2018-11-26T14:37:40.032Z,101674.53
2018-11-26T14:40:11.378Z,101670.70
2018-11-26T14:42:39.215Z,101673.39
2018-11-26T14:45:09.455Z,101673.68
2018-11-26T14:47:37.317Z,101672.25
2018-11-26T14:50:07.721Z,101675.06
2018-11-26T14:52:35.506Z,101677.66
2018-11-26T14:55:03.357Z,101676.66
2018-11-26T14:57:31.150Z,101679.39
2018-11-26T14:59:58.874Z,101683.89
2018-11-26T15:02:26.685Z,101682.33
2018-11-26T15:04:54.436Z,101688.67
2018-11-26T15:07:22.143Z,101688.58
2018-11-26T15:09:49.911Z,101690.64
2018-11-26T15:12:17.705Z,101690.11
2018-11-26T15:14:45.431Z,101703.53
2018-11-26T15:17:13.803Z,101696.40
2018-11-26T15:19:41.625Z,101696.68
2018-11-26T15:22:09.320Z,101705.50
2018-11-26T15:24:37.101Z,101704.98
2018-11-26T15:27:04.924Z,101713.83
2018-11-26T15:29:32.754Z,101708.83
2018-11-26T15:32:00.474Z,101710.31
2018-11-26T15:34:28.241Z,101713.19
2018-11-26T15:36:55.958Z,101716.56
2018-11-26T15:39:23.681Z,101713.12
2018-11-26T15:41:51.433Z,101715.79
2018-11-26T15:44:19.283Z,101712.50
2018-11-26T15:46:47.015Z,101715.33
2018-11-26T15:49:14.732Z,101722.73
2018-11-26T15:51:42.436Z,101724.56
2018-11-26T15:54:10.231Z,101719.20
2018-11-26T15:56:38.047Z,101722.83
2018-11-26T15:59:05.856Z,101719.77
2018-11-26T16:01:33.588Z,101727.48
2018-11-26T16:04:01.286Z,101724.75
2018-11-26T16:06:28.990Z,101732.55
2018-11-26T16:08:56.822Z,101728.16
2018-11-26T16:11:24.602Z,101733.08
2018-11-26T16:13:52.364Z,101729.73
2018-11-26T16:16:20.102Z,101727.41
2018-11-26T16:18:47.839Z,101731.02
2018-11-26T16:21:15.544Z,101733.92
2018-11-26T16:23:43.315Z,101732.43
2018-11-26T16:26:11.149Z,101736.16
2018-11-26T16:28:38.936Z,101740.31
2018-11-26T16:31:06.751Z,101735.38
2018-11-26T16:33:34.486Z,101731.75
2018-11-26T16:36:02.228Z,101740.66
2018-11-26T16:38:30.548Z,101743.34
2018-11-26T16:40:58.561Z,101745.19
2018-11-26T16:43:26.386Z,101742.61
2018-11-26T16:45:54.104Z,101750.45
2018-11-26T16:48:21.831Z,101756.33
2018-11-26T16:50:49.547Z,101758.08
2018-11-26T16:53:19.372Z,101755.32
2018-11-26T16:55:45.119Z,101756.15
2018-11-26T16:58:12.881Z,101754.05
2018-11-26T17:00:40.666Z,101762.73
2018-11-26T17:03:08.504Z,101759.85
2018-11-26T17:05:40.609Z,101761.05
2018-11-26T17:08:12.572Z,101759.63
2018-11-26T17:10:40.504Z,101766.39
2018-11-26T17:13:08.593Z,101764.95
2018-11-26T17:15:36.650Z,101772.41
2018-11-26T17:18:05.169Z,101770.98
2018-11-26T17:20:32.987Z,101771.25
2018-11-26T17:23:01.062Z,101770.53
2018-11-26T17:25:28.851Z,101778.15
2018-11-26T17:27:57.491Z,101780.98
2018-11-26T17:30:26.560Z,101781.30
2018-11-26T17:32:57.523Z,101782.69
2018-11-26T17:35:25.380Z,101778.72
2018-11-26T17:37:53.337Z,101776.22
2018-11-26T17:40:22.150Z,101784.80
2018-11-26T17:42:50.296Z,101781.84
2018-11-26T17:45:18.719Z,101784.97
2018-11-26T17:47:50.096Z,101790.80
2018-11-26T17:50:26.028Z,101790.30
2018-11-26T17:52:54.524Z,101788.92
2018-11-26T17:55:22.599Z,101791.43
2018-11-26T17:57:50.485Z,101798.34
2018-11-26T18:00:19.996Z,101801.52
2018-11-26T18:02:47.894Z,101802.10
2018-11-26T18:05:17.999Z,101802.47
2018-11-26T18:07:47.229Z,101803.55
2018-11-26T18:10:15.476Z,101803.64
2018-11-26T18:12:43.319Z,101801.17
2018-11-26T18:15:13.656Z,101801.03
2018-11-26T18:17:41.573Z,101804.53
2018-11-26T18:20:11.019Z,101815.48
2018-11-26T18:22:38.759Z,101818.27
2018-11-26T18:25:07.988Z,101825.76
2018-11-26T18:27:35.939Z,101821.13
2018-11-26T18:30:09.016Z,101826.29
2018-11-26T18:32:36.892Z,101830.42
2018-11-26T18:35:04.761Z,101834.91
2018-11-26T18:37:32.488Z,101843.66
2018-11-26T18:40:00.266Z,101849.09
2018-11-26T18:42:28.038Z,101850.66
2018-11-26T18:44:55.853Z,101844.33
2018-11-26T18:47:23.604Z,101849.77
2018-11-26T18:49:51.466Z,101847.38
2018-11-26T18:52:19.229Z,101851.52
2018-11-26T18:54:46.963Z,101851.41
2018-11-26T18:57:14.728Z,101859.27
2018-11-26T18:59:42.514Z,101851.52
2018-11-26T19:02:10.307Z,101857.60
2018-11-26T19:04:38.052Z,101856.70
2018-11-26T19:07:05.998Z,101851.73
2018-11-26T19:09:33.692Z,101852.77
2018-11-26T19:12:04.120Z,101854.59
2018-11-26T19:14:29.531Z,101860.78
2018-11-26T19:16:57.738Z,101855.99
2018-11-26T19:19:25.139Z,101859.75
2018-11-26T19:21:52.888Z,101858.18
2018-11-26T19:24:20.806Z,101860.25
2018-11-26T19:26:48.562Z,101858.59
2018-11-26T19:29:16.319Z,101858.73
2018-11-26T19:31:44.079Z,101858.12
2018-11-26T19:34:11.842Z,101862.88
2018-11-26T19:36:39.723Z,101867.69
2018-11-26T19:39:08.728Z,101867.70
2018-11-26T19:41:36.929Z,101866.39
2018-11-26T19:44:04.752Z,101856.83
2018-11-26T19:46:32.589Z,101860.73
2018-11-26T19:49:00.456Z,101872.67
2018-11-26T19:51:28.297Z,101863.59
2018-11-26T19:53:56.121Z,101868.02
2018-11-26T19:56:23.854Z,101874.98
2018-11-26T19:58:51.580Z,101870.07
2018-11-26T20:01:19.324Z,101870.67
2018-11-26T20:03:51.129Z,101870.99
2018-11-26T20:06:20.620Z,101870.92
2018-11-26T20:08:49.711Z,101878.88
2018-11-26T20:11:17.468Z,101875.38
2018-11-26T20:13:45.509Z,101876.55
2018-11-26T20:16:18.009Z,101875.92
2018-11-26T20:18:45.771Z,101877.76
2018-11-26T20:21:13.579Z,101879.96
2018-11-26T20:23:41.327Z,101883.78
2018-11-26T20:26:09.099Z,101879.38
2018-11-26T20:28:36.882Z,101884.31
2018-11-26T20:31:05.344Z,101891.09
2018-11-26T20:33:33.106Z,101892.30
2018-11-26T20:36:00.886Z,101898.28
2018-11-26T20:38:28.624Z,101895.68
2018-11-26T20:40:56.379Z,101895.09
2018-11-26T20:43:24.142Z,101899.80
2018-11-26T20:45:51.959Z,101904.56
2018-11-26T20:48:19.755Z,101900.30
2018-11-26T20:50:49.743Z,101901.50
2018-11-26T20:53:18.200Z,101905.13
2018-11-26T20:55:45.958Z,101898.80
2018-11-26T20:58:13.712Z,101902.92
2018-11-26T21:00:41.992Z,101906.98
2018-11-26T21:03:10.464Z,101901.72
2018-11-26T21:05:39.077Z,101909.48
2018-11-26T21:08:06.853Z,101898.24
2018-11-26T21:10:34.707Z,101908.19
2018-11-26T21:13:02.472Z,101913.03
2018-11-26T21:15:30.280Z,101924.80
2018-11-26T21:17:58.567Z,101920.89
2018-11-26T21:20:31.168Z,101927.34
2018-11-26T21:22:59.003Z,101923.11
2018-11-26T21:25:26.800Z,101923.59
2018-11-26T21:27:54.564Z,101925.05
2018-11-26T21:30:22.359Z,101923.62
2018-11-26T21:32:50.070Z,101921.31
2018-11-26T21:35:18.679Z,101925.22
2018-11-26T21:37:48.869Z,101926.17
2018-11-26T21:40:20.392Z,101922.48
2018-11-26T21:42:47.475Z,101920.78
2018-11-26T21:45:25.563Z,101926.58
2018-11-26T21:47:53.366Z,101925.60
2018-11-26T21:50:21.084Z,101921.70
2018-11-26T21:52:48.843Z,101917.02
2018-11-26T21:55:17.697Z,101927.66
2018-11-26T21:57:46.073Z,101921.58
2018-11-26T22:00:21.753Z,101928.09
2018-11-26T22:02:49.687Z,101925.37
2018-11-26T22:05:17.472Z,101928.84
2018-11-26T22:07:45.242Z,101933.72
2018-11-26T22:10:15.044Z,101931.67
2018-11-26T22:12:44.028Z,101931.95
2018-11-26T22:15:12.743Z,101941.20
2018-11-26T22:17:40.812Z,101943.30
2018-11-26T22:20:13.869Z,101938.91
2018-11-26T22:22:41.595Z,101949.34
2018-11-26T22:25:10.614Z,101949.70
2018-11-26T22:27:38.465Z,101959.03
2018-11-26T22:30:14.775Z,101955.48
2018-11-26T22:32:42.595Z,101960.08
2018-11-26T22:35:10.776Z,101954.31
2018-11-26T22:37:38.575Z,101956.77
2018-11-26T22:40:15.528Z,101953.39
2018-11-26T22:42:43.359Z,101952.83
2018-11-26T22:45:12.482Z,101959.02
2018-11-26T22:47:40.364Z,101958.22
2018-11-26T22:50:13.954Z,101958.20
2018-11-26T22:52:41.841Z,101961.71
2018-11-26T22:55:10.982Z,101970.77
2018-11-26T22:57:38.746Z,101969.14
2018-11-26T23:00:21.189Z,101969.02
2018-11-26T23:02:49.091Z,101965.78
2018-11-26T23:05:16.842Z,101967.14
2018-11-26T23:07:44.572Z,101971.91
2018-11-26T23:10:12.386Z,101972.17
2018-11-26T23:12:40.096Z,101974.78
2018-11-26T23:15:10.278Z,101981.75
2018-11-26T23:17:38.004Z,101975.09
2018-11-26T23:20:08.406Z,101973.40
2018-11-26T23:22:36.154Z,101977.97
2018-11-26T23:25:04.261Z,101974.51
2018-11-26T23:27:32.024Z,101975.03
2018-11-26T23:29:59.824Z,101980.12
2018-11-26T23:32:27.605Z,101976.21
2018-11-26T23:34:55.396Z,101974.16
2018-11-26T23:37:23.199Z,101975.00
2018-11-26T23:39:51.016Z,101978.19
2018-11-26T23:42:18.871Z,101974.46
2018-11-26T23:44:46.583Z,101980.72
2018-11-26T23:47:14.395Z,101983.19
2018-11-26T23:49:42.108Z,101982.61
2018-11-26T23:52:09.906Z,101986.51
2018-11-26T23:54:37.692Z,101997.23
2018-11-26T23:57:05.742Z,102000.92
2018-11-26T23:59:33.504Z,101992.66
